Batticaloa Airport


Codes: VCCB/BTC
Name: Batticaloa Airport
City: Batticaloa
Country: Sri Lanka
Elevation: 20 ft.
Wikipedia:

Photos at Batticaloa Airport


   Photos courtesy of SpottingLog. You can add your own sightings and photos by signing up for a free trial today.



No photos found.

Weather at Batticaloa Airport


Time (UTC)DescriptionTempratureWindCloud coverageVisibilityPressureHumidity
25-Jun-2024 12:00Overcast Clouds32°C18 mph, W100%10000m1004hPa53%
25-Jun-2024 15:00Overcast Clouds31°C13 mph, W100%10000m1005hPa56%
25-Jun-2024 18:00Overcast Clouds31°C16 mph, W100%10000m1005hPa57%
25-Jun-2024 21:00Overcast Clouds30°C16 mph, W100%10000m1004hPa60%
26-Jun-2024 00:00Overcast Clouds29°C13 mph, W100%10000m1005hPa61%
26-Jun-2024 03:00Overcast Clouds31°C16 mph, W99%10000m1006hPa56%
26-Jun-2024 06:00Overcast Clouds33°C13 mph, W99%10000m1005hPa48%
26-Jun-2024 09:00Overcast Clouds34°C22 mph, W100%10000m1003hPa44%
26-Jun-2024 12:00Overcast Clouds32°C18 mph, W100%10000m1005hPa51%
26-Jun-2024 15:00Overcast Clouds30°C13 mph, W100%10000m1007hPa56%
26-Jun-2024 18:00Overcast Clouds30°C11 mph, W100%10000m1007hPa57%
26-Jun-2024 21:00Overcast Clouds28°C9 mph, W100%10000m1005hPa60%
27-Jun-2024 00:00Overcast Clouds28°C11 mph, W99%10000m1006hPa62%
27-Jun-2024 03:00Overcast Clouds31°C18 mph, W100%10000m1007hPa53%
27-Jun-2024 06:00Overcast Clouds35°C20 mph, W95%10000m1006hPa40%
27-Jun-2024 09:00Overcast Clouds36°C18 mph, W97%10000m1003hPa39%
27-Jun-2024 12:00Overcast Clouds33°C7 mph, W87%10000m1006hPa50%
27-Jun-2024 15:00Overcast Clouds30°C9 mph, NW98%10000m1008hPa60%
27-Jun-2024 18:00Overcast Clouds29°C9 mph, W99%10000m1008hPa60%
27-Jun-2024 21:00Overcast Clouds28°C7 mph, SW100%10000m1006hPa60%
28-Jun-2024 00:00Overcast Clouds28°C7 mph, W100%10000m1007hPa61%
28-Jun-2024 03:00Overcast Clouds31°C9 mph, W100%10000m1008hPa51%
28-Jun-2024 06:00Overcast Clouds35°C7 mph, SW99%10000m1007hPa42%
28-Jun-2024 09:00Overcast Clouds35°C2 mph, W100%10000m1004hPa43%
28-Jun-2024 12:00Overcast Clouds33°C4 mph, W100%10000m1005hPa51%
28-Jun-2024 15:00Overcast Clouds29°C9 mph, NW89%10000m1007hPa61%
28-Jun-2024 18:00Overcast Clouds28°C9 mph, W93%10000m1008hPa63%
28-Jun-2024 21:00Overcast Clouds27°C4 mph, SW100%10000m1007hPa67%
29-Jun-2024 00:00Broken Clouds26°C2 mph, SW83%10000m1007hPa69%
29-Jun-2024 03:00Broken Clouds30°C2 mph, SW81%10000m1009hPa55%
29-Jun-2024 06:00Broken Clouds34°C2 mph, SE76%10000m1007hPa46%
29-Jun-2024 09:00Scattered Clouds33°C13 mph, E25%10000m1005hPa51%
29-Jun-2024 12:00Few Clouds31°C11 mph, E21%10000m1006hPa63%
29-Jun-2024 15:00Broken Clouds29°C7 mph, NE60%10000m1008hPa78%
29-Jun-2024 18:00Broken Clouds28°C7 mph, NW80%10000m1009hPa70%
29-Jun-2024 21:00Overcast Clouds27°C4 mph, SW97%10000m1007hPa73%
30-Jun-2024 00:00Overcast Clouds26°C4 mph, SW86%10000m1008hPa76%
30-Jun-2024 03:00Overcast Clouds30°C0 mph, W94%10000m1010hPa63%
30-Jun-2024 06:00Broken Clouds33°C7 mph, NE83%10000m1008hPa50%
30-Jun-2024 09:00Overcast Clouds34°C9 mph, E97%10000m1005hPa50%